Time;durP1;ratioP1;P1;durP2;ratioP2;P2;SDS_P1;SDS_P2;PMS_P1;PMS_P2;Temp;Humidity;BMP_temperature;BMP_pressure;BME280_temperature;BME280_humidity;BME280_pressure;Samples;Min_cycle;Max_cycle;Signal;HPM_P1;HPM_P2
2023/12/08 00:01:16;;;;;;;16.70;11.43;;;;;;;6.45;46.48;96896.97;5068922;28;20210;-68
2023/12/08 00:03:41;;;;;;;16.03;11.67;;;;;;;6.41;46.76;96894.78;5061283;28;20214;-68
2023/12/08 00:06:07;;;;;;;17.60;12.17;;;;;;;6.45;46.82;96906.56;5069370;28;20213;-69
2023/12/08 00:08:33;;;;;;;17.43;12.33;;;;;;;6.47;46.76;96889.03;5068671;28;20182;-68
2023/12/08 00:10:59;;;;;;;16.97;11.70;;;;;;;6.49;47.16;96889.72;5065235;28;20556;-68
2023/12/08 00:13:24;;;;;;;17.23;11.77;;;;;;;6.46;46.90;96866.53;5054715;28;20528;-67
2023/12/08 00:15:50;;;;;;;16.17;11.50;;;;;;;6.34;47.19;96865.00;5068719;28;20264;-67
2023/12/08 00:18:15;;;;;;;15.93;11.63;;;;;;;6.25;47.74;96841.44;5051355;28;20190;-68
2023/12/08 00:20:40;;;;;;;19.63;11.50;;;;;;;6.26;48.13;96832.69;5065074;28;20202;-68
2023/12/08 00:23:06;;;;;;;16.33;11.20;;;;;;;6.27;48.42;96831.72;5066876;28;20269;-70
2023/12/08 00:25:32;;;;;;;21.17;12.70;;;;;;;6.25;48.04;96825.84;5067855;28;20735;-69
2023/12/08 00:27:57;;;;;;;20.67;11.73;;;;;;;6.18;48.26;96824.72;5068403;28;20182;-70
2023/12/08 00:30:23;;;;;;;19.60;11.47;;;;;;;6.28;47.87;96828.19;5061601;28;20258;-69
2023/12/08 00:32:48;;;;;;;15.23;11.40;;;;;;;6.20;48.08;96811.56;5068674;28;20186;-68
2023/12/08 00:35:14;;;;;;;15.23;11.07;;;;;;;6.35;47.33;96825.84;5061610;28;20206;-69
2023/12/08 00:37:39;;;;;;;14.47;11.10;;;;;;;6.39;47.69;96810.78;5058379;28;20650;-69
2023/12/08 00:40:06;;;;;;;19.80;11.63;;;;;;;6.32;47.16;96796.66;5065712;28;20202;-69
2023/12/08 00:42:32;;;;;;;18.27;11.43;;;;;;;6.24;46.98;96779.94;5057647;28;20683;-69
2023/12/08 00:44:57;;;;;;;16.23;12.13;;;;;;;6.32;47.72;96794.88;5056342;28;20449;-69
2023/12/08 00:47:22;;;;;;;16.40;11.90;;;;;;;6.42;47.40;96803.53;5059467;28;20194;-68
2023/12/08 00:49:48;;;;;;;20.30;11.37;;;;;;;6.44;47.67;96788.59;5064259;28;20203;-70
2023/12/08 00:52:13;;;;;;;15.10;10.37;;;;;;;6.48;47.52;96809.16;5060200;28;20182;-69
2023/12/08 00:54:39;;;;;;;14.93;10.57;;;;;;;6.54;46.91;96812.03;5068306;28;20206;-70
2023/12/08 00:57:04;;;;;;;12.93;10.27;;;;;;;6.57;46.78;96811.75;5067504;28;20209;-69
2023/12/08 00:59:30;;;;;;;17.00;11.53;;;;;;;6.50;46.91;96810.66;5059424;28;20221;-70
2023/12/08 01:01:55;;;;;;;15.43;10.60;;;;;;;6.49;47.16;96809.00;5059841;28;20190;-69
2023/12/08 01:04:20;;;;;;;15.23;9.97;;;;;;;6.50;46.88;96791.59;5067920;28;20270;-70
2023/12/08 01:06:46;;;;;;;18.70;10.73;;;;;;;6.62;47.33;96785.28;5068579;28;20217;-70
2023/12/08 01:09:12;;;;;;;18.13;11.07;;;;;;;6.60;47.37;96777.63;5068111;28;20214;-71
2023/12/08 01:11:38;;;;;;;15.77;10.90;;;;;;;6.63;47.76;96771.31;5063278;28;20197;-72
2023/12/08 01:14:03;;;;;;;19.07;11.60;;;;;;;6.63;47.50;96749.66;5059549;28;20428;-71
2023/12/08 01:16:29;;;;;;;14.37;10.63;;;;;;;6.54;47.88;96740.91;5052878;28;20210;-69
2023/12/08 01:18:54;;;;;;;15.67;11.00;;;;;;;6.57;47.80;96736.22;5068177;28;20736;-69
2023/12/08 01:21:20;;;;;;;17.20;10.77;;;;;;;6.60;47.67;96748.16;5069376;28;20217;-69
2023/12/08 01:23:45;;;;;;;13.47;9.37;;;;;;;6.67;47.57;96766.66;5057320;28;20269;-70
2023/12/08 01:26:11;;;;;;;12.90;8.90;;;;;;;6.66;47.77;96781.47;5064718;28;20225;-70
2023/12/08 01:28:36;;;;;;;11.47;8.93;;;;;;;6.66;47.66;96780.66;5066592;28;20228;-68
2023/12/08 01:31:03;;;;;;;16.47;9.10;;;;;;;6.67;47.83;96792.72;5030720;28;20171;-70
2023/12/08 01:33:29;;;;;;;16.83;9.13;;;;;;;6.64;47.60;96787.78;5047730;28;20178;-71
2023/12/08 01:35:54;;;;;;;9.30;7.20;;;;;;;6.69;46.71;96785.56;5067686;28;20449;-70
2023/12/08 01:38:20;;;;;;;11.00;7.13;;;;;;;6.72;46.20;96783.53;5050703;28;20448;-70
2023/12/08 01:40:46;;;;;;;10.93;7.40;;;;;;;6.67;46.61;96764.06;5062402;28;20602;-69
2023/12/08 01:43:11;;;;;;;10.40;7.27;;;;;;;6.70;46.39;96762.00;5067891;28;20182;-68
2023/12/08 01:45:37;;;;;;;9.63;6.93;;;;;;;6.75;46.69;96765.00;5049147;28;20209;-70
2023/12/08 01:48:04;;;;;;;8.70;7.13;;;;;;;6.80;46.31;96762.00;5062048;28;20187;-69
2023/12/08 01:50:30;;;;;;;10.17;6.73;;;;;;;6.83;46.60;96774.72;5031064;28;20416;-69
2023/12/08 01:52:55;;;;;;;13.57;8.20;;;;;;;6.88;46.53;96766.47;5049890;28;20931;-68
2023/12/08 01:55:21;;;;;;;8.23;6.40;;;;;;;6.88;46.23;96762.09;5043503;28;20464;-67
2023/12/08 01:57:46;;;;;;;8.13;6.23;;;;;;;6.87;45.78;96755.25;5059833;28;20216;-69
2023/12/08 02:00:12;;;;;;;9.40;6.90;;;;;;;6.86;46.18;96751.00;5067008;28;20199;-68
2023/12/08 02:02:38;;;;;;;8.40;6.40;;;;;;;6.88;46.12;96756.91;5065952;28;20186;-68
2023/12/08 02:05:04;;;;;;;9.80;7.17;;;;;;;6.88;46.35;96753.47;5044312;28;20440;-68
2023/12/08 02:07:31;;;;;;;8.37;6.23;;;;;;;6.86;46.61;96745.00;5066774;28;20585;-69
2023/12/08 02:09:57;;;;;;;8.83;6.70;;;;;;;6.88;46.66;96749.09;5045312;28;20232;-68
2023/12/08 02:12:22;;;;;;;8.77;6.30;;;;;;;6.90;46.72;96757.59;5062449;28;20974;-68
2023/12/08 02:14:50;;;;;;;9.30;6.83;;;;;;;6.93;46.07;96760.88;5066574;28;20234;-68
2023/12/08 02:17:30;;;;;;;11.83;6.87;;;;;;;6.90;45.70;96762.78;5065642;28;20601;-70
2023/12/08 02:19:55;;;;;;;8.73;6.50;;;;;;;6.88;45.33;96758.66;5067311;28;20490;-68
2023/12/08 02:22:24;;;;;;;9.97;7.20;;;;;;;6.79;45.36;96755.13;5068990;28;20429;-68
2023/12/08 02:24:50;;;;;;;6.83;5.80;;;;;;;6.77;44.87;96764.88;5062303;28;20569;-68
2023/12/08 02:27:15;;;;;;;9.43;6.57;;;;;;;6.79;45.93;96767.31;5069741;28;20412;-68
2023/12/08 02:29:41;;;;;;;8.90;6.27;;;;;;;6.85;45.44;96756.38;5070541;28;20416;-68
2023/12/08 02:32:18;;;;;;;11.87;6.57;;;;;;;6.89;45.76;96742.91;5051694;28;20636;-68
2023/12/08 02:34:44;;;;;;;8.63;7.00;;;;;;;6.97;45.77;96746.59;5050728;28;20206;-70
2023/12/08 02:37:11;;;;;;;10.17;7.30;;;;;;;6.96;45.78;96750.16;5052793;28;20463;-68
2023/12/08 02:39:37;;;;;;;9.00;6.40;;;;;;;7.00;45.93;96754.13;5049987;28;20482;-69
2023/12/08 02:42:02;;;;;;;8.90;6.30;;;;;;;6.89;45.48;96755.09;5047207;28;20427;-68
2023/12/08 02:44:28;;;;;;;12.33;6.63;;;;;;;6.84;46.05;96749.50;5053190;28;20675;-68
2023/12/08 02:46:53;;;;;;;9.60;6.57;;;;;;;6.90;46.34;96756.75;5070654;28;20235;-69
2023/12/08 02:49:19;;;;;;;7.77;6.33;;;;;;;6.86;46.35;96756.22;5052838;28;20288;-68
2023/12/08 02:51:44;;;;;;;7.90;6.50;;;;;;;6.89;46.52;96755.94;5070164;28;20274;-69
2023/12/08 02:54:10;;;;;;;8.50;6.70;;;;;;;6.85;46.34;96753.75;5070675;28;20214;-69
2023/12/08 02:56:35;;;;;;;8.40;6.90;;;;;;;6.89;46.57;96742.06;5069143;28;20205;-70
2023/12/08 02:59:01;;;;;;;10.70;6.83;;;;;;;6.89;46.79;96745.53;5062224;28;20716;-69
2023/12/08 03:01:26;;;;;;;9.13;6.43;;;;;;;6.87;46.65;96739.63;5068745;28;20267;-69
2023/12/08 03:03:51;;;;;;;7.67;5.93;;;;;;;6.86;46.94;96730.16;5062485;28;20277;-68
2023/12/08 03:13:01;;;;;;;8.73;6.53;;;;;;;6.86;46.01;96717.13;5062107;28;20501;-69
2023/12/08 03:15:26;;;;;;;8.60;7.03;;;;;;;6.76;45.92;96708.53;5062802;28;20992;-70
2023/12/08 03:17:51;;;;;;;8.23;6.87;;;;;;;6.69;46.61;96703.06;5032779;28;21924;-69
2023/12/08 03:20:17;;;;;;;10.40;7.27;;;;;;;6.73;46.17;96701.00;5036044;28;20748;-68
2023/12/08 03:22:42;;;;;;;8.87;6.50;;;;;;;6.76;45.87;96709.34;5068909;28;20182;-70
2023/12/08 03:25:08;;;;;;;10.00;6.50;;;;;;;6.75;45.82;96707.69;5069787;28;20202;-68
2023/12/08 03:27:33;;;;;;;9.37;6.93;;;;;;;6.74;45.82;96718.25;5054739;28;20213;-70
2023/12/08 03:29:59;;;;;;;9.00;7.00;;;;;;;6.66;45.80;96711.13;5063852;28;20193;-68
2023/12/08 03:32:24;;;;;;;8.37;6.63;;;;;;;6.63;46.33;96692.38;5064570;28;20211;-69
2023/12/08 03:34:50;;;;;;;10.00;7.70;;;;;;;6.69;45.87;96695.25;5054698;28;20264;-70
2023/12/08 03:37:16;;;;;;;12.10;6.50;;;;;;;6.60;46.35;96717.72;5068892;28;20182;-69
2023/12/08 03:39:43;;;;;;;7.00;6.23;;;;;;;6.55;47.01;96711.28;5059549;28;21066;-69
2023/12/08 03:42:08;;;;;;;9.17;7.20;;;;;;;6.55;46.23;96719.13;5058414;28;20266;-68
2023/12/08 03:44:34;;;;;;;9.53;6.30;;;;;;;6.54;46.43;96720.06;5060778;28;20452;-69
2023/12/08 03:46:59;;;;;;;8.20;6.10;;;;;;;6.54;46.18;96715.69;5066373;28;20183;-69
2023/12/08 03:49:25;;;;;;;11.57;6.90;;;;;;;6.52;46.41;96722.81;5061585;28;20179;-68
2023/12/08 03:51:50;;;;;;;8.07;6.10;;;;;;;6.56;46.36;96726.78;5059761;28;20675;-70
2023/12/08 03:54:15;;;;;;;10.20;6.73;;;;;;;6.45;46.48;96724.31;5068752;28;20857;-69
2023/12/08 03:56:41;;;;;;;8.37;6.47;;;;;;;6.47;46.63;96730.22;5067912;28;20625;-69
2023/12/08 03:59:06;;;;;;;8.17;6.23;;;;;;;6.57;46.88;96725.81;5068937;28;20645;-67
2023/12/08 04:01:32;;;;;;;7.97;6.37;;;;;;;6.52;46.92;96730.63;5068893;28;20178;-70
2023/12/08 04:03:57;;;;;;;10.10;6.77;;;;;;;6.56;46.80;96741.59;5060318;28;20206;-69
2023/12/08 04:06:23;;;;;;;15.77;7.40;;;;;;;6.57;46.98;96736.22;5068722;28;20226;-70
2023/12/08 04:08:48;;;;;;;9.47;6.33;;;;;;;6.58;47.13;96740.47;5059558;28;20264;-68
2023/12/08 04:11:14;;;;;;;10.83;6.50;;;;;;;6.59;47.13;96744.72;5060432;28;20202;-70
2023/12/08 04:13:39;;;;;;;12.20;7.23;;;;;;;6.56;47.48;96754.59;5067564;28;20243;-69
2023/12/08 04:16:06;;;;;;;12.03;6.80;;;;;;;6.64;47.54;96762.53;5065561;28;20206;-69
2023/12/08 04:18:31;;;;;;;10.10;6.60;;;;;;;6.76;47.45;96758.00;5064335;28;20178;-69
2023/12/08 04:20:56;;;;;;;7.70;6.40;;;;;;;6.79;47.11;96760.34;5055479;28;20441;-68
2023/12/08 04:23:22;;;;;;;8.50;6.50;;;;;;;6.74;46.93;96750.31;5058039;28;21225;-69
2023/12/08 04:25:47;;;;;;;9.30;6.60;;;;;;;6.74;46.84;96750.31;5067514;28;20285;-69
2023/12/08 04:28:13;;;;;;;9.17;6.63;;;;;;;6.79;46.98;96744.72;5068250;28;20702;-68
2023/12/08 04:30:38;;;;;;;8.57;6.17;;;;;;;6.83;46.84;96748.66;5058443;28;20274;-69
2023/12/08 04:33:04;;;;;;;9.23;6.17;;;;;;;6.79;47.03;96754.31;5059911;28;20257;-70
2023/12/08 04:35:29;;;;;;;9.87;6.67;;;;;;;6.75;47.83;96751.97;5033241;28;20286;-70
2023/12/08 04:37:54;;;;;;;9.07;5.70;;;;;;;6.78;47.92;96745.69;5060574;28;20519;-69
2023/12/08 04:40:20;;;;;;;7.60;6.40;;;;;;;6.86;47.83;96732.75;5067873;28;20313;-69
2023/12/08 04:42:45;;;;;;;8.10;6.53;;;;;;;6.88;48.73;96733.44;5059078;28;20209;-69
2023/12/08 04:45:13;;;;;;;9.50;6.80;;;;;;;6.96;49.07;96740.56;5046652;28;20210;-69
2023/12/08 04:47:39;;;;;;;9.50;6.43;;;;;;;6.94;49.37;96733.84;5055630;28;20179;-68
2023/12/08 04:50:05;;;;;;;8.27;6.27;;;;;;;6.96;49.90;96718.88;5066942;28;20421;-69
2023/12/08 04:52:30;;;;;;;10.37;6.90;;;;;;;6.99;49.71;96714.25;5067794;28;20431;-69
2023/12/08 04:54:56;;;;;;;9.10;6.40;;;;;;;6.98;50.09;96719.56;5067325;28;20241;-70
2023/12/08 04:57:22;;;;;;;7.27;6.07;;;;;;;7.03;50.48;96722.59;5066236;28;20214;-70
2023/12/08 04:59:47;;;;;;;8.93;7.17;;;;;;;7.05;51.22;96712.84;5066503;28;20206;-69
2023/12/08 05:02:12;;;;;;;10.23;6.43;;;;;;;7.06;51.71;96702.28;5044982;28;20528;-69
2023/12/08 05:04:38;;;;;;;7.57;5.83;;;;;;;7.12;51.89;96705.28;5067685;28;20190;-69
2023/12/08 05:07:03;;;;;;;7.40;6.27;;;;;;;7.00;52.86;96697.63;5066929;28;20201;-69
2023/12/08 05:09:29;;;;;;;8.13;6.53;;;;;;;7.01;52.81;96701.88;5050922;28;20810;-69
2023/12/08 05:11:54;;;;;;;8.20;5.90;;;;;;;7.03;53.35;96694.72;5066780;28;20182;-70
2023/12/08 05:14:20;;;;;;;9.03;6.90;;;;;;;7.04;53.59;96695.56;5058197;28;20175;-70
2023/12/08 05:16:45;;;;;;;8.13;6.20;;;;;;;7.09;53.85;96698.56;5066860;28;20272;-71
2023/12/08 05:19:11;;;;;;;10.17;6.10;;;;;;;7.11;53.50;96695.81;5053359;28;20265;-72
2023/12/08 05:21:36;;;;;;;8.60;6.73;;;;;;;7.07;53.46;96705.69;5067046;28;20289;-70
2023/12/08 05:24:01;;;;;;;11.07;6.60;;;;;;;6.96;54.01;96698.03;5061273;28;20265;-69
2023/12/08 05:26:27;;;;;;;7.93;6.33;;;;;;;7.06;53.85;96698.81;5062347;28;20203;-68
2023/12/08 05:28:52;;;;;;;8.70;6.83;;;;;;;7.07;53.84;96708.28;5066714;28;20261;-68
2023/12/08 05:31:18;;;;;;;12.13;7.90;;;;;;;7.04;54.41;96703.38;5067410;28;20175;-68
2023/12/08 05:33:43;;;;;;;10.03;7.53;;;;;;;6.97;55.00;96715.31;5065510;28;20242;-68
2023/12/08 05:36:09;;;;;;;12.83;8.20;;;;;;;6.95;55.21;96717.25;5061105;28;20238;-69
2023/12/08 05:38:35;;;;;;;9.17;7.10;;;;;;;6.97;56.15;96710.94;5066308;28;20566;-68
2023/12/08 05:41:01;;;;;;;11.23;7.50;;;;;;;7.06;55.67;96715.31;5065823;28;20457;-69
2023/12/08 05:43:26;;;;;;;12.53;6.83;;;;;;;7.03;55.35;96717.38;5067214;28;20182;-70
2023/12/08 05:45:52;;;;;;;12.50;7.00;;;;;;;6.90;55.07;96713.28;5065731;28;20207;-69
2023/12/08 05:48:17;;;;;;;11.00;7.40;;;;;;;6.86;55.44;96714.53;5057952;28;20222;-68
2023/12/08 05:50:43;;;;;;;9.70;7.43;;;;;;;6.80;55.78;96712.50;5065658;28;20246;-71
2023/12/08 05:53:09;;;;;;;12.80;7.97;;;;;;;6.84;55.83;96710.44;5061730;28;20186;-69
2023/12/08 05:55:34;;;;;;;12.60;7.50;;;;;;;6.81;56.45;96716.72;5058622;28;20287;-69
2023/12/08 05:57:59;;;;;;;11.23;7.87;;;;;;;6.85;56.07;96720.69;5061426;28;20237;-69
2023/12/08 06:00:25;;;;;;;11.20;8.17;;;;;;;6.65;56.15;96721.72;5059637;28;20294;-69
2023/12/08 06:02:51;;;;;;;10.47;7.43;;;;;;;6.72;56.13;96718.41;5062101;28;20182;-69
2023/12/08 06:05:16;;;;;;;24.17;13.37;;;;;;;6.69;55.90;96723.91;5069359;28;20948;-69
2023/12/08 06:07:42;;;;;;;17.70;10.77;;;;;;;6.64;56.39;96720.88;5070474;28;20178;-69
2023/12/08 06:10:09;;;;;;;23.80;12.80;;;;;;;6.66;56.44;96723.34;5069863;28;20170;-70
2023/12/08 06:12:35;;;;;;;15.90;10.97;;;;;;;6.61;56.55;96719.38;5070781;28;20205;-70
2023/12/08 06:15:00;;;;;;;15.97;10.80;;;;;;;6.55;56.85;96712.09;5068307;28;20488;-68
2023/12/08 06:17:26;;;;;;;14.37;9.90;;;;;;;6.56;56.80;96712.94;5066842;28;20482;-70
2023/12/08 06:19:52;;;;;;;14.07;9.40;;;;;;;6.51;57.54;96717.72;5058195;28;20214;-70
2023/12/08 06:22:18;;;;;;;10.97;8.13;;;;;;;6.54;57.38;96715.69;5067258;28;20424;-68
2023/12/08 06:24:43;;;;;;;12.53;9.13;;;;;;;6.53;57.10;96723.63;5059607;28;20222;-69
2023/12/08 06:27:09;;;;;;;17.47;9.50;;;;;;;6.50;57.18;96724.72;5057156;28;20698;-70
2023/12/08 06:29:34;;;;;;;17.30;9.47;;;;;;;6.38;57.70;96723.22;5066430;28;20320;-70
2023/12/08 06:31:59;;;;;;;12.83;9.57;;;;;;;6.31;57.78;96730.78;5063921;28;20269;-70
2023/12/08 06:34:25;;;;;;;15.63;11.10;;;;;;;6.21;57.87;96719.53;5070403;28;20193;-68
2023/12/08 06:36:50;;;;;;;16.77;9.67;;;;;;;6.19;58.08;96727.47;5070851;28;20596;-68
2023/12/08 06:39:16;;;;;;;16.93;10.00;;;;;;;6.27;58.30;96719.81;5066804;28;20633;-68
2023/12/08 06:41:41;;;;;;;15.77;9.00;;;;;;;6.33;58.57;96717.59;5071076;28;20178;-68
2023/12/08 06:44:07;;;;;;;19.57;10.73;;;;;;;6.30;58.60;96722.13;5070808;28;20193;-68
2023/12/08 06:46:32;;;;;;;16.43;10.00;;;;;;;6.33;58.75;96722.81;5070705;28;20206;-69
2023/12/08 06:48:58;;;;;;;15.90;9.97;;;;;;;6.30;58.91;96719.53;5070126;28;20926;-69
2023/12/08 06:51:23;;;;;;;13.50;9.43;;;;;;;6.35;58.95;96718.28;5070718;28;20201;-68
2023/12/08 06:53:49;;;;;;;14.53;9.50;;;;;;;6.33;59.07;96720.22;5070704;28;20273;-68
2023/12/08 06:56:15;;;;;;;16.63;9.50;;;;;;;6.34;59.33;96725.31;5068926;28;20259;-68
2023/12/08 06:58:40;;;;;;;14.13;8.50;;;;;;;6.40;59.05;96729.94;5070703;28;20190;-68
2023/12/08 07:01:06;;;;;;;16.03;8.33;;;;;;;6.37;59.08;96732.00;5070074;28;20493;-68
2023/12/08 07:03:31;;;;;;;16.47;8.60;;;;;;;6.42;58.95;96735.84;5070572;28;20757;-69
2023/12/08 07:05:57;;;;;;;13.33;8.03;;;;;;;6.43;59.29;96734.03;5068407;28;20202;-69
2023/12/08 07:08:22;;;;;;;23.80;11.50;;;;;;;6.57;59.51;96736.22;5064573;28;20187;-69
2023/12/08 07:10:47;;;;;;;21.23;12.30;;;;;;;6.65;59.26;96730.34;5064968;28;20560;-69
2023/12/08 07:13:13;;;;;;;15.67;10.23;;;;;;;6.68;59.37;96727.47;5067387;28;20289;-68
2023/12/08 07:15:39;;;;;;;16.30;9.43;;;;;;;6.68;59.69;96727.47;5066821;28;20232;-69
2023/12/08 07:18:04;;;;;;;14.53;8.90;;;;;;;6.66;59.76;96731.16;5067493;28;20269;-69
2023/12/08 07:20:30;;;;;;;16.07;8.20;;;;;;;6.63;59.82;96728.84;5070292;28;20535;-70
2023/12/08 07:22:55;;;;;;;13.43;7.70;;;;;;;6.64;60.20;96723.47;5068143;28;20190;-71
2023/12/08 07:25:21;;;;;;;14.23;7.70;;;;;;;6.67;59.78;96720.59;5069336;28;20301;-70
2023/12/08 07:27:46;;;;;;;15.03;8.10;;;;;;;6.68;60.35;96724.03;5068737;28;20274;-69
2023/12/08 07:30:12;;;;;;;11.20;8.20;;;;;;;6.75;60.45;96723.31;5069460;28;20210;-69
2023/12/08 07:32:37;;;;;;;11.20;7.03;;;;;;;6.65;60.73;96732.13;5051983;28;20205;-68
2023/12/08 07:35:04;;;;;;;13.30;8.00;;;;;;;6.71;60.50;96732.38;5069509;28;20212;-70
2023/12/08 07:37:29;;;;;;;11.13;7.97;;;;;;;6.73;60.97;96730.47;5067449;28;20202;-70
2023/12/08 07:39:55;;;;;;;17.83;7.63;;;;;;;6.82;61.19;96722.78;5076035;28;20452;-69
2023/12/08 07:42:21;;;;;;;13.83;8.10;;;;;;;6.84;61.49;96729.47;5063994;28;20197;-70
2023/12/08 07:44:46;;;;;;;13.87;8.40;;;;;;;6.80;61.41;96729.91;5070258;28;20285;-70
2023/12/08 07:47:11;;;;;;;11.87;8.20;;;;;;;6.78;61.87;96722.25;5069099;28;20196;-71
2023/12/08 07:49:37;;;;;;;18.13;9.93;;;;;;;6.59;62.54;96730.91;5066258;28;20193;-69
2023/12/08 07:52:03;;;;;;;19.50;9.63;;;;;;;6.63;62.27;96728.84;5068905;28;20187;-69
2023/12/08 07:54:31;;;;;;;16.57;10.23;;;;;;;6.70;62.41;96717.72;5063815;28;20213;-69
2023/12/08 07:56:58;;;;;;;18.33;10.37;;;;;;;6.73;62.60;96725.28;5068686;28;20548;-70
2023/12/08 07:59:23;;;;;;;19.47;10.03;;;;;;;6.63;63.36;96721.03;5069419;28;20451;-69
2023/12/08 08:01:49;;;;;;;20.80;9.23;;;;;;;6.82;62.99;96728.78;5053915;28;20430;-70
2023/12/08 08:04:14;;;;;;;17.93;8.67;;;;;;;6.89;62.97;96726.44;5063308;28;20187;-69
2023/12/08 08:06:40;;;;;;;19.50;10.33;;;;;;;6.86;63.17;96726.75;5067546;28;20363;-70
2023/12/08 08:09:07;;;;;;;19.00;10.70;;;;;;;6.96;63.00;96729.31;5062114;28;20194;-70
2023/12/08 08:11:32;;;;;;;17.30;9.10;;;;;;;7.02;63.54;96734.78;5067588;28;20188;-68
2023/12/08 08:13:58;;;;;;;15.90;8.97;;;;;;;7.05;63.67;96724.09;5067181;28;20432;-69
2023/12/08 08:16:23;;;;;;;19.17;8.90;;;;;;;7.15;63.93;96728.44;5067647;28;20218;-69
2023/12/08 08:18:49;;;;;;;18.50;10.70;;;;;;;7.26;63.64;96732.66;5060994;28;20241;-70
2023/12/08 08:21:15;;;;;;;16.60;8.90;;;;;;;7.30;64.05;96731.41;5067357;28;20285;-69
2023/12/08 08:23:41;;;;;;;13.50;8.20;;;;;;;7.37;63.84;96732.47;5063296;28;20576;-70
2023/12/08 08:26:06;;;;;;;12.00;7.43;;;;;;;7.44;64.24;96737.94;5046945;28;20444;-70
2023/12/08 08:28:32;;;;;;;7.43;5.90;;;;;;;7.49;64.60;96741.75;5063597;28;20432;-70
2023/12/08 08:30:57;;;;;;;8.40;7.00;;;;;;;7.57;64.24;96742.81;5066637;28;20175;-69
2023/12/08 08:33:23;;;;;;;8.93;6.50;;;;;;;7.63;64.15;96750.06;5059583;28;20182;-69
2023/12/08 08:35:48;;;;;;;23.00;7.17;;;;;;;7.67;64.46;96733.97;5068794;28;20301;-70
2023/12/08 08:38:14;;;;;;;11.30;6.70;;;;;;;7.70;64.03;96748.50;5067315;28;20207;-69
2023/12/08 08:40:39;;;;;;;8.63;6.30;;;;;;;7.75;64.13;96756.72;5068449;28;20658;-68
2023/12/08 08:43:05;;;;;;;10.83;6.60;;;;;;;7.79;64.25;96745.03;5064361;28;20190;-69
2023/12/08 08:45:30;;;;;;;9.03;7.00;;;;;;;7.86;64.06;96749.66;5067756;28;20247;-69
2023/12/08 08:47:56;;;;;;;8.40;6.73;;;;;;;7.86;64.58;96749.66;5068414;28;20182;-70
2023/12/08 08:50:22;;;;;;;8.20;6.30;;;;;;;8.00;63.96;96744.75;5068081;28;20654;-69
2023/12/08 08:52:47;;;;;;;8.70;6.50;;;;;;;8.04;64.35;96750.53;5066233;28;20272;-70
2023/12/08 08:55:13;;;;;;;11.60;6.43;;;;;;;8.01;64.09;96753.44;5067839;28;20432;-70
2023/12/08 08:57:38;;;;;;;8.07;5.47;;;;;;;8.10;64.24;96749.13;5063139;28;20190;-68
2023/12/08 09:00:05;;;;;;;8.60;6.17;;;;;;;8.14;64.33;96751.28;5064970;28;20819;-69
2023/12/08 09:02:30;;;;;;;7.20;5.40;;;;;;;8.21;64.45;96761.94;5030849;28;20185;-69
2023/12/08 09:04:55;;;;;;;9.67;6.07;;;;;;;8.27;64.29;96761.34;5050543;28;20536;-69
2023/12/08 09:07:21;;;;;;;8.20;5.57;;;;;;;8.36;63.71;96767.47;5066299;28;20207;-68
2023/12/08 09:09:46;;;;;;;10.13;6.00;;;;;;;8.44;64.16;96771.94;5066650;28;20185;-69
2023/12/08 09:12:12;;;;;;;8.57;6.43;;;;;;;8.46;63.91;96773.44;5059671;28;20335;-69
2023/12/08 09:14:38;;;;;;;11.63;8.23;;;;;;;8.53;64.29;96775.50;5067912;28;20188;-69
2023/12/08 09:17:05;;;;;;;11.80;8.43;;;;;;;8.49;64.33;96774.13;5067767;28;20643;-68
2023/12/08 09:19:34;;;;;;;13.83;8.30;;;;;;;8.46;64.22;96781.25;5068221;28;20409;-69
2023/12/08 09:21:59;;;;;;;9.90;7.17;;;;;;;8.49;64.48;96774.13;5064226;28;20425;-69
2023/12/08 09:24:25;;;;;;;12.10;8.23;;;;;;;8.57;64.55;96776.81;5066679;28;20994;-69
2023/12/08 09:26:52;;;;;;;10.80;8.10;;;;;;;8.56;64.39;96778.63;5060593;28;20206;-69
2023/12/08 09:29:18;;;;;;;9.80;7.40;;;;;;;8.58;64.62;96773.22;5067040;28;20424;-69
2023/12/08 09:31:43;;;;;;;11.67;7.67;;;;;;;8.57;64.84;96776.81;5053126;28;20425;-70
2023/12/08 09:34:09;;;;;;;10.40;7.90;;;;;;;8.58;64.51;96783.69;5062024;28;20227;-69
2023/12/08 09:36:35;;;;;;;10.80;7.80;;;;;;;8.59;64.77;96782.72;5067880;28;20572;-71
2023/12/08 09:39:03;;;;;;;9.20;7.53;;;;;;;8.61;65.49;96783.38;5065909;28;20183;-70
2023/12/08 09:41:30;;;;;;;12.00;7.80;;;;;;;8.59;65.53;96785.31;5067828;28;20460;-70
2023/12/08 09:44:13;;;;;;;8.57;6.93;;;;;;;8.63;65.29;96781.44;5048825;28;20412;-70
2023/12/08 09:46:46;;;;;;;10.07;7.00;;;;;;;8.69;65.23;96770.41;5064343;28;20539;-69
2023/12/08 09:49:19;;;;;;;12.80;7.17;;;;;;;8.70;65.27;96771.22;5046178;28;20416;-69
2023/12/08 09:51:45;;;;;;;9.00;7.20;;;;;;;8.72;65.60;96775.31;5068200;28;20417;-70
2023/12/08 09:54:11;;;;;;;8.80;7.40;;;;;;;8.76;65.57;96774.06;5048199;28;20466;-69
2023/12/08 09:56:36;;;;;;;11.53;7.67;;;;;;;8.78;65.47;96773.09;5036103;28;20262;-69
2023/12/08 09:59:02;;;;;;;12.20;7.63;;;;;;;8.80;65.78;96771.16;5041464;28;20698;-70
2023/12/08 10:01:28;;;;;;;10.80;8.03;;;;;;;8.81;66.07;96775.41;5059606;28;20206;-70
2023/12/08 10:03:54;;;;;;;11.50;7.77;;;;;;;8.83;65.77;96769.03;5067393;28;20458;-69
2023/12/08 10:06:20;;;;;;;9.70;7.63;;;;;;;8.85;65.68;96774.94;5067551;28;20202;-70
2023/12/08 10:08:46;;;;;;;8.43;6.60;;;;;;;8.91;65.21;96779.53;5067317;28;20178;-69
2023/12/08 10:11:11;;;;;;;11.00;7.17;;;;;;;8.95;65.21;96774.03;5057531;28;20804;-69
2023/12/08 10:13:37;;;;;;;14.53;7.47;;;;;;;8.98;65.41;96776.34;5054182;28;20217;-69
2023/12/08 10:16:02;;;;;;;11.73;7.30;;;;;;;9.06;65.35;96776.38;5067540;28;20214;-69
2023/12/08 10:18:28;;;;;;;10.30;6.77;;;;;;;9.11;65.14;96776.75;5055372;28;20183;-68
2023/12/08 10:21:21;;;;;;;9.87;7.10;;;;;;;9.13;65.18;96776.59;5062331;28;21045;-69
2023/12/08 10:23:46;;;;;;;10.93;6.90;;;;;;;9.16;65.12;96771.06;5066597;28;20286;-69
2023/12/08 10:26:16;;;;;;;8.00;6.17;;;;;;;9.24;64.91;96773.72;5060048;28;20521;-68
2023/12/08 10:28:42;;;;;;;12.20;7.30;;;;;;;9.27;64.67;96773.41;5063007;28;20186;-68
2023/12/08 10:31:08;;;;;;;12.57;6.83;;;;;;;9.31;64.78;96777.38;5057398;28;20417;-68
2023/12/08 10:33:34;;;;;;;9.80;6.73;;;;;;;9.31;64.61;96774.75;5061148;28;20417;-69
2023/12/08 10:35:59;;;;;;;11.73;6.77;;;;;;;9.40;64.31;96769.56;5067072;28;20199;-69
2023/12/08 10:38:25;;;;;;;11.13;6.93;;;;;;;9.46;63.86;96774.16;5066217;28;20216;-68
2023/12/08 10:40:54;;;;;;;13.47;7.17;;;;;;;9.49;63.83;96776.47;5048869;28;20286;-69
2023/12/08 10:43:23;;;;;;;9.27;6.70;;;;;;;9.52;63.56;96768.31;5064068;28;20179;-68
2023/12/08 10:45:52;;;;;;;7.60;5.90;;;;;;;9.56;63.51;96777.50;5065331;28;20449;-67
2023/12/08 10:48:21;;;;;;;10.83;6.70;;;;;;;9.58;63.21;96770.28;5056181;28;20413;-69
2023/12/08 10:50:48;;;;;;;8.23;5.90;;;;;;;9.59;63.58;96771.94;5069555;28;20413;-70
2023/12/08 10:53:18;;;;;;;11.17;7.00;;;;;;;9.61;63.22;96769.97;5065407;28;20424;-70
2023/12/08 10:55:57;;;;;;;10.47;6.40;;;;;;;9.64;63.61;96761.84;5071588;28;20969;-70
2023/12/08 10:58:23;;;;;;;10.90;6.20;;;;;;;9.67;63.82;96764.13;5043003;28;20447;-70
2023/12/08 11:00:51;;;;;;;10.13;6.80;;;;;;;9.71;63.70;96764.63;5053270;28;20452;-71
2023/12/08 11:03:19;;;;;;;8.57;6.00;;;;;;;9.73;63.83;96757.47;5063462;28;20248;-71
2023/12/08 11:05:48;;;;;;;7.93;4.87;;;;;;;9.75;63.53;96758.13;5046558;28;20947;-69
2023/12/08 11:08:17;;;;;;;8.37;5.80;;;;;;;9.78;63.88;96754.34;5052193;28;20437;-69
2023/12/08 11:10:53;;;;;;;5.70;5.00;;;;;;;9.80;63.76;96745.38;5064820;28;20413;-69
2023/12/08 11:13:21;;;;;;;7.30;5.43;;;;;;;9.90;63.70;96742.63;5053145;28;20436;-70
2023/12/08 11:16:22;;;;;;;10.63;6.07;;;;;;;9.96;63.35;96741.97;5071378;28;20950;-69
2023/12/08 11:18:48;;;;;;;6.57;4.70;;;;;;;9.96;63.38;96751.63;5061795;28;20425;-69
2023/12/08 11:21:13;;;;;;;5.97;4.67;;;;;;;10.02;63.18;96748.34;5053397;28;20453;-68
2023/12/08 11:23:40;;;;;;;5.27;4.73;;;;;;;10.10;63.12;96760.66;5067243;28;21197;-70
2023/12/08 11:26:43;;;;;;;6.10;4.00;;;;;;;10.11;63.10;96764.91;5060622;28;20226;-68
2023/12/08 11:29:39;;;;;;;6.00;4.37;;;;;;;10.18;62.92;96762.47;5062926;28;20512;-70
2023/12/08 11:32:26;;;;;;;5.80;4.43;;;;;;;10.19;62.76;96770.19;5066989;28;20463;-70
2023/12/08 11:35:02;;;;;;;5.10;4.27;;;;;;;10.21;62.35;96760.34;5047033;28;20434;-70
2023/12/08 11:37:29;;;;;;;6.50;4.27;;;;;;;10.25;62.61;96751.19;5060886;28;20437;-70